createdAt,value
2023-03-29T00:00:12.655Z,99094.25
2023-03-29T00:02:40.991Z,99084.50
2023-03-29T00:05:10.602Z,99083.06
2023-03-29T00:07:38.492Z,99086.66
2023-03-29T00:10:07.646Z,99080.88
2023-03-29T00:12:35.569Z,99066.72
2023-03-29T00:15:03.906Z,99063.72
2023-03-29T00:17:33.948Z,99062.38
2023-03-29T00:20:01.844Z,99061.22
2023-03-29T00:22:29.779Z,99065.03
2023-03-29T00:24:57.660Z,99056.50
2023-03-29T00:27:25.819Z,99068.63
2023-03-29T00:29:53.706Z,99073.38
2023-03-29T00:32:21.890Z,99069.19
2023-03-29T00:34:51.802Z,99058.78
2023-03-29T00:37:19.982Z,99065.94
2023-03-29T00:39:48.317Z,99073.00
2023-03-29T00:42:18.677Z,99082.34
2023-03-29T00:45:02.010Z,99073.22
2023-03-29T00:47:33.859Z,99075.81
2023-03-29T00:50:09.856Z,99073.44
2023-03-29T00:52:39.629Z,99070.09
2023-03-29T00:55:12.311Z,99057.34
2023-03-29T00:57:43.368Z,99053.34
2023-03-29T01:00:14.706Z,99053.22
2023-03-29T01:02:44.607Z,99040.69
2023-03-29T01:05:18.645Z,99052.31
2023-03-29T01:07:53.813Z,99059.34
2023-03-29T01:10:26.793Z,99051.06
2023-03-29T01:13:01.166Z,99053.75
2023-03-29T01:15:29.931Z,99056.25
2023-03-29T01:17:58.482Z,99057.22
2023-03-29T01:20:43.433Z,99064.47
2023-03-29T01:23:38.236Z,99052.69
2023-03-29T01:26:16.081Z,99062.28
2023-03-29T01:28:50.683Z,99064.81
2023-03-29T01:31:25.649Z,99049.50
2023-03-29T01:34:00.080Z,99066.94
2023-03-29T01:36:35.054Z,99059.78
2023-03-29T01:39:07.116Z,99065.34
2023-03-29T01:41:41.309Z,99058.03
2023-03-29T01:44:18.458Z,99043.88
2023-03-29T01:46:48.216Z,99047.22
2023-03-29T01:49:23.171Z,99046.22
2023-03-29T01:51:57.250Z,99056.38
2023-03-29T01:54:29.463Z,99052.66
2023-03-29T01:56:59.534Z,99041.44
2023-03-29T01:59:34.478Z,99042.16
2023-03-29T02:02:05.558Z,99033.81
2023-03-29T02:04:38.332Z,99043.47
2023-03-29T02:07:09.757Z,99050.13
2023-03-29T02:09:38.656Z,99050.22
2023-03-29T02:12:09.376Z,99060.63
2023-03-29T02:14:39.009Z,99053.47
2023-03-29T02:17:21.496Z,99062.69
2023-03-29T02:19:53.544Z,99047.34
2023-03-29T02:22:27.772Z,99056.28
2023-03-29T02:24:59.398Z,99051.63
2023-03-29T02:27:29.170Z,99036.34
2023-03-29T02:29:59.244Z,99037.81
2023-03-29T02:32:34.701Z,99024.34
2023-03-29T02:35:08.513Z,99029.69
2023-03-29T02:37:37.309Z,99028.91
2023-03-29T02:40:12.596Z,99026.47
2023-03-29T02:42:41.131Z,99024.06
2023-03-29T02:45:14.157Z,99024.75
2023-03-29T02:47:46.684Z,99020.84
2023-03-29T02:50:14.881Z,99029.28
2023-03-29T02:52:52.331Z,99044.66
2023-03-29T02:55:22.605Z,99038.41
2023-03-29T02:57:50.510Z,99029.28
2023-03-29T03:00:23.194Z,99030.53
2023-03-29T03:02:52.236Z,99024.31
2023-03-29T03:05:20.377Z,99033.34
2023-03-29T03:07:48.287Z,99027.28
2023-03-29T03:10:16.295Z,99036.84
2023-03-29T03:12:44.178Z,99022.66
2023-03-29T03:15:13.520Z,99010.41
2023-03-29T03:17:42.919Z,99010.78
2023-03-29T03:20:13.914Z,99005.44
2023-03-29T03:22:43.231Z,99010.75
2023-03-29T03:25:13.691Z,99015.81
2023-03-29T03:27:42.121Z,99016.22
2023-03-29T03:30:11.551Z,99021.63
2023-03-29T03:32:39.492Z,99014.72
2023-03-29T03:35:10.036Z,99014.19
2023-03-29T03:37:38.389Z,99024.22
2023-03-29T03:40:11.997Z,99020.94
2023-03-29T03:42:40.376Z,99029.03
2023-03-29T03:45:10.679Z,99024.69
2023-03-29T03:47:39.033Z,99022.75
2023-03-29T03:50:09.926Z,99020.19
2023-03-29T03:52:37.904Z,99014.63
2023-03-29T03:55:06.513Z,99010.47
2023-03-29T03:57:37.458Z,99015.88
2023-03-29T04:00:19.466Z,99014.19
2023-03-29T04:02:49.535Z,99019.22
2023-03-29T04:05:20.046Z,99018.13
2023-03-29T04:07:48.302Z,99018.13
2023-03-29T04:10:16.567Z,99012.22
2023-03-29T04:12:44.514Z,99019.59
2023-03-29T04:15:12.441Z,99018.63
2023-03-29T04:17:40.569Z,99010.38
2023-03-29T04:20:12.455Z,99028.03
2023-03-29T04:22:42.263Z,99009.41
2023-03-29T04:25:11.834Z,98995.69
2023-03-29T04:27:40.011Z,99005.44
2023-03-29T04:30:09.591Z,99007.03
2023-03-29T04:32:37.853Z,99005.31
2023-03-29T04:35:06.681Z,99004.31
2023-03-29T04:37:34.913Z,99013.66
2023-03-29T04:40:08.443Z,99018.44
2023-03-29T04:42:36.405Z,99016.00
2023-03-29T04:45:04.502Z,99000.94
2023-03-29T04:47:32.801Z,99015.56
2023-03-29T04:50:00.771Z,99002.13
2023-03-29T04:52:33.110Z,98998.22
2023-03-29T04:55:01.094Z,98998.75
2023-03-29T04:57:30.418Z,99005.03
2023-03-29T04:59:58.453Z,99020.38
2023-03-29T05:02:26.374Z,99008.69
2023-03-29T05:04:54.265Z,99015.06
2023-03-29T05:07:22.526Z,99005.50
2023-03-29T05:09:50.425Z,98995.97
2023-03-29T05:12:18.365Z,99012.41
2023-03-29T05:14:47.673Z,99004.19
2023-03-29T05:17:15.568Z,99009.25
2023-03-29T05:19:43.568Z,99013.44
2023-03-29T05:22:11.496Z,99009.88
2023-03-29T05:24:39.412Z,99009.75
2023-03-29T05:27:07.327Z,99000.19
2023-03-29T05:29:35.218Z,99014.72
2023-03-29T05:32:04.976Z,99015.59
2023-03-29T05:34:32.933Z,99019.09
2023-03-29T05:37:01.618Z,99007.25
2023-03-29T05:39:30.045Z,99021.31
2023-03-29T05:41:57.917Z,99015.38
2023-03-29T05:44:25.893Z,99017.66
2023-03-29T05:46:53.883Z,99017.66
2023-03-29T05:49:23.132Z,99009.78
2023-03-29T05:51:52.087Z,98986.81
2023-03-29T05:54:19.997Z,98999.16
2023-03-29T05:56:47.926Z,99010.06
2023-03-29T05:59:17.679Z,99008.88
2023-03-29T06:01:47.073Z,99005.94
2023-03-29T06:04:15.176Z,99008.84
2023-03-29T06:06:44.605Z,99002.31
2023-03-29T06:09:12.517Z,99000.16
2023-03-29T06:11:40.828Z,99001.69
2023-03-29T06:14:08.820Z,99001.69
2023-03-29T06:16:38.094Z,98997.47
2023-03-29T06:19:07.401Z,99001.34
2023-03-29T06:21:35.767Z,99000.38
2023-03-29T06:24:05.745Z,99004.75
2023-03-29T06:26:33.816Z,98995.41
2023-03-29T06:29:01.692Z,99001.72
2023-03-29T06:31:30.186Z,99001.84
2023-03-29T06:33:58.819Z,98995.66
2023-03-29T06:36:27.003Z,99005.72
2023-03-29T06:38:55.544Z,99007.63
2023-03-29T06:41:24.901Z,99002.59
2023-03-29T06:43:53.639Z,98997.16
2023-03-29T06:46:21.703Z,99002.47
2023-03-29T06:48:49.599Z,99010.59
2023-03-29T06:51:17.566Z,98999.22
2023-03-29T06:53:45.487Z,99006.97
2023-03-29T06:56:13.468Z,99005.63
2023-03-29T06:58:42.860Z,99005.16
2023-03-29T07:01:11.678Z,99010.59
2023-03-29T07:03:40.044Z,99013.50
2023-03-29T07:06:11.765Z,99021.84
2023-03-29T07:08:43.804Z,99016.16
2023-03-29T07:11:13.838Z,99010.84
2023-03-29T07:13:44.020Z,99015.66
2023-03-29T07:16:13.871Z,99016.16
2023-03-29T07:18:43.094Z,99018.09
2023-03-29T07:21:12.650Z,99021.38
2023-03-29T07:23:41.052Z,99024.41
2023-03-29T07:26:09.539Z,99031.03
2023-03-29T07:28:39.429Z,99034.56
2023-03-29T07:31:12.019Z,99029.38
2023-03-29T07:33:40.890Z,99026.34
2023-03-29T07:36:09.689Z,99028.16
2023-03-29T07:38:38.591Z,99036.25
2023-03-29T07:41:08.053Z,99042.91
2023-03-29T07:43:36.686Z,99044.22
2023-03-29T07:46:06.799Z,99045.09
2023-03-29T07:48:37.127Z,99049.31
2023-03-29T07:51:06.198Z,99049.88
2023-03-29T07:53:34.217Z,99047.47
2023-03-29T07:56:02.126Z,99045.72
2023-03-29T07:58:30.638Z,99046.34
2023-03-29T08:01:01.338Z,99056.16
2023-03-29T08:03:29.584Z,99061.38
2023-03-29T08:06:02.435Z,99069.19
2023-03-29T08:08:30.330Z,99065.00
2023-03-29T08:10:58.548Z,99042.75
2023-03-29T08:13:26.597Z,99061.38
2023-03-29T08:15:54.470Z,99067.94
2023-03-29T08:18:22.443Z,99067.19
2023-03-29T08:20:52.705Z,99054.00
2023-03-29T08:23:22.018Z,99062.38
2023-03-29T08:25:49.854Z,99073.75
2023-03-29T08:28:18.011Z,99065.50
2023-03-29T08:30:46.838Z,99055.72
2023-03-29T08:33:15.602Z,99050.41
2023-03-29T08:35:43.797Z,99052.72
2023-03-29T08:38:12.649Z,99053.41
2023-03-29T08:40:42.074Z,99042.06
2023-03-29T08:43:32.575Z,99023.06
2023-03-29T08:46:10.288Z,99034.78
2023-03-29T08:48:42.358Z,99038.19
2023-03-29T08:51:21.579Z,99046.78
2023-03-29T08:53:53.701Z,99042.69
2023-03-29T08:56:27.567Z,99032.75
2023-03-29T08:58:57.356Z,99032.03
2023-03-29T09:01:26.650Z,99024.88
2023-03-29T09:04:04.982Z,99029.38
2023-03-29T09:06:33.044Z,99035.41
2023-03-29T09:09:02.436Z,99030.63
2023-03-29T09:11:48.004Z,99026.47
2023-03-29T09:14:30.009Z,99031.25
2023-03-29T09:17:02.738Z,99034.19
2023-03-29T09:19:38.834Z,99026.88
2023-03-29T09:22:17.028Z,99030.22
2023-03-29T09:25:01.594Z,98979.78
2023-03-29T09:27:36.349Z,99020.47
2023-03-29T09:30:15.332Z,99033.50
2023-03-29T09:32:50.951Z,99026.56
2023-03-29T09:35:24.010Z,99031.25
2023-03-29T09:37:54.286Z,99021.41
2023-03-29T09:40:27.836Z,99028.09
2023-03-29T09:42:58.523Z,99029.41
2023-03-29T09:45:26.506Z,99031.50
2023-03-29T09:47:58.890Z,99031.50
2023-03-29T09:50:34.103Z,99041.34
2023-03-29T09:53:02.633Z,99038.53
2023-03-29T09:55:33.984Z,99054.81
2023-03-29T09:58:12.401Z,99043.28
2023-03-29T10:00:41.092Z,99030.66
2023-03-29T10:03:10.745Z,99028.03
2023-03-29T10:05:40.133Z,99023.69
2023-03-29T10:08:22.462Z,99021.84
2023-03-29T10:10:51.031Z,99012.00
2023-03-29T10:13:23.825Z,99014.69
2023-03-29T10:15:59.501Z,99007.38
2023-03-29T10:18:28.228Z,99000.34
2023-03-29T10:21:01.289Z,99007.13
2023-03-29T10:23:33.463Z,99015.88
2023-03-29T10:26:04.756Z,99009.97
2023-03-29T10:28:36.413Z,99013.50
2023-03-29T10:31:08.191Z,99003.50
2023-03-29T10:33:37.701Z,99014.06
2023-03-29T10:36:08.564Z,99013.25
2023-03-29T10:38:38.417Z,99007.75
2023-03-29T10:41:10.193Z,99003.94
2023-03-29T10:43:44.534Z,98994.31
2023-03-29T10:46:20.044Z,98994.47
2023-03-29T10:48:52.860Z,98989.63
2023-03-29T10:51:21.334Z,98987.50
2023-03-29T10:53:49.308Z,98987.94
2023-03-29T10:56:34.096Z,98984.69
2023-03-29T10:59:28.595Z,98981.69
2023-03-29T11:02:40.855Z,98968.88
2023-03-29T11:05:25.579Z,98972.91
2023-03-29T11:08:17.928Z,98966.94
2023-03-29T11:10:55.135Z,98968.56
2023-03-29T11:13:32.592Z,98965.66
2023-03-29T11:16:13.360Z,98964.88
2023-03-29T11:19:10.059Z,98962.34
2023-03-29T11:21:43.331Z,98965.69
2023-03-29T11:24:29.135Z,98964.66
2023-03-29T11:27:10.976Z,98957.59
2023-03-29T11:29:50.636Z,98951.34
2023-03-29T11:32:30.280Z,98976.66
2023-03-29T11:35:09.225Z,98969.66
2023-03-29T11:37:43.255Z,98972.50
2023-03-29T11:40:31.720Z,98968.44
2023-03-29T11:43:02.453Z,98970.94
2023-03-29T11:45:35.612Z,98959.38
2023-03-29T11:48:08.734Z,98965.84
2023-03-29T11:50:45.825Z,98963.97
2023-03-29T11:53:18.891Z,98957.06
2023-03-29T11:55:48.407Z,98952.72
2023-03-29T11:58:19.859Z,98956.31
2023-03-29T12:00:50.637Z,98962.78
2023-03-29T12:03:29.974Z,98956.25
2023-03-29T12:06:05.023Z,98948.53
2023-03-29T12:08:36.264Z,98951.75
2023-03-29T12:11:11.877Z,98943.16
2023-03-29T12:13:44.097Z,98932.16
2023-03-29T12:16:18.639Z,98912.66
2023-03-29T12:18:50.640Z,98925.47
2023-03-29T12:21:22.438Z,98926.78
2023-03-29T12:23:52.032Z,98928.50
2023-03-29T12:26:35.384Z,98925.09
2023-03-29T12:29:29.710Z,98913.34
2023-03-29T12:32:02.383Z,98911.19
2023-03-29T12:34:58.247Z,98910.44
2023-03-29T12:37:36.240Z,98904.38
2023-03-29T12:40:15.206Z,98904.75
2023-03-29T12:42:48.173Z,98907.25
2023-03-29T12:45:20.989Z,98892.81
2023-03-29T12:47:52.121Z,98893.81
2023-03-29T12:50:29.017Z,98891.63
2023-03-29T12:53:08.615Z,98902.75
2023-03-29T12:55:50.507Z,98898.50
2023-03-29T12:58:39.372Z,98895.31
2023-03-29T13:01:10.598Z,98882.22
2023-03-29T13:03:48.436Z,98887.41
2023-03-29T13:06:30.249Z,98870.25
2023-03-29T13:09:03.676Z,98876.31
2023-03-29T13:11:35.520Z,98885.22
2023-03-29T13:14:11.781Z,98849.91
2023-03-29T13:16:42.222Z,98874.28
2023-03-29T13:19:28.071Z,98886.91
2023-03-29T13:22:08.559Z,98888.25
2023-03-29T13:25:09.231Z,98870.75
2023-03-29T13:27:46.459Z,98880.19
2023-03-29T13:30:25.812Z,98882.84
2023-03-29T13:33:07.436Z,98868.41
2023-03-29T13:35:46.356Z,98854.63
2023-03-29T13:38:20.795Z,98867.22
2023-03-29T13:41:00.562Z,98873.78
2023-03-29T13:43:34.479Z,98871.41
2023-03-29T13:46:22.371Z,98868.88
2023-03-29T13:48:59.229Z,98855.25
2023-03-29T13:51:36.082Z,98862.47
2023-03-29T13:54:14.309Z,98861.13
2023-03-29T13:56:52.448Z,98860.59
2023-03-29T13:59:26.654Z,98854.84
2023-03-29T14:01:58.038Z,98853.13
2023-03-29T14:04:29.183Z,98846.09
2023-03-29T14:06:58.668Z,98849.91
2023-03-29T14:09:33.051Z,98849.63
2023-03-29T14:12:02.059Z,98837.63
2023-03-29T14:14:32.878Z,98827.13
2023-03-29T14:17:02.335Z,98830.63
2023-03-29T14:19:33.100Z,98817.81
2023-03-29T14:22:02.816Z,98842.47
2023-03-29T14:24:39.368Z,98842.03
2023-03-29T14:27:11.403Z,98838.22
2023-03-29T14:29:39.340Z,98832.84
2023-03-29T14:32:12.708Z,98832.31
2023-03-29T14:34:41.122Z,98820.75
2023-03-29T14:37:12.781Z,98811.91
2023-03-29T14:39:42.744Z,98827.72
2023-03-29T14:42:20.824Z,98846.44
2023-03-29T14:44:50.852Z,98846.28
2023-03-29T14:47:25.361Z,98826.72
2023-03-29T14:49:54.542Z,98838.56
2023-03-29T14:52:22.807Z,98826.47
2023-03-29T14:54:56.636Z,98837.75
2023-03-29T14:57:26.422Z,98835.75
2023-03-29T14:59:56.018Z,98838.69
2023-03-29T15:02:26.230Z,98834.34
2023-03-29T15:04:59.598Z,98838.91
2023-03-29T15:07:29.471Z,98824.13
2023-03-29T15:10:00.702Z,98828.00
2023-03-29T15:12:30.988Z,98815.88
2023-03-29T15:15:00.388Z,98818.75
2023-03-29T15:17:46.825Z,98819.56
2023-03-29T15:20:23.506Z,98819.91
2023-03-29T15:22:58.835Z,98810.69
2023-03-29T15:25:33.340Z,98810.50
2023-03-29T15:28:01.873Z,98809.16
2023-03-29T15:30:34.841Z,98799.91
2023-03-29T15:33:18.224Z,98802.44
2023-03-29T15:35:51.333Z,98803.75
2023-03-29T15:38:23.379Z,98800.59
2023-03-29T15:40:57.083Z,98781.94
2023-03-29T15:43:25.852Z,98793.69
2023-03-29T15:45:53.812Z,98790.69
2023-03-29T15:48:24.341Z,98801.94
2023-03-29T15:50:53.105Z,98800.75
2023-03-29T15:53:21.964Z,98796.38
2023-03-29T15:55:52.486Z,98791.00
2023-03-29T15:58:25.849Z,98792.03
2023-03-29T16:00:59.266Z,98795.22
2023-03-29T16:03:28.423Z,98791.19
2023-03-29T16:05:57.487Z,98790.97
2023-03-29T16:08:26.133Z,98788.63
2023-03-29T16:10:54.044Z,98771.13
2023-03-29T16:13:23.361Z,98775.00
2023-03-29T16:15:51.294Z,98788.97
2023-03-29T16:18:19.283Z,98789.28
2023-03-29T16:20:47.182Z,98786.94
2023-03-29T16:23:15.230Z,98781.91
2023-03-29T16:25:43.470Z,98772.81
2023-03-29T16:28:11.451Z,98791.47
2023-03-29T16:30:41.019Z,98771.97
2023-03-29T16:33:09.388Z,98781.06
2023-03-29T16:35:40.040Z,98770.13
2023-03-29T16:38:11.750Z,98744.16
2023-03-29T16:40:39.645Z,98749.84
2023-03-29T16:43:07.693Z,98743.78
2023-03-29T16:45:36.361Z,98725.78
2023-03-29T16:48:05.883Z,98718.16
2023-03-29T16:50:33.982Z,98708.69
2023-03-29T16:53:02.012Z,98704.72
2023-03-29T16:55:29.901Z,98719.47
2023-03-29T16:57:58.046Z,98718.16
2023-03-29T17:00:26.043Z,98720.56
2023-03-29T17:02:53.977Z,98737.03
2023-03-29T17:05:23.373Z,98743.09
2023-03-29T17:07:51.382Z,98735.50
2023-03-29T17:10:19.596Z,98747.25
2023-03-29T17:12:47.586Z,98739.16
2023-03-29T17:15:15.992Z,98726.47
2023-03-29T17:17:43.936Z,98749.75
2023-03-29T17:20:12.978Z,98735.47
2023-03-29T17:22:42.908Z,98757.22
2023-03-29T17:25:11.263Z,98753.19
2023-03-29T17:27:39.220Z,98757.44
2023-03-29T17:30:08.480Z,98768.56
2023-03-29T17:32:36.849Z,98762.50
2023-03-29T17:35:05.144Z,98780.75
2023-03-29T17:37:33.058Z,98784.69
2023-03-29T17:40:09.446Z,98798.56
2023-03-29T17:42:37.393Z,98804.31
2023-03-29T17:45:06.276Z,98798.25
2023-03-29T17:47:34.157Z,98797.44
2023-03-29T17:50:02.133Z,98794.41
2023-03-29T17:52:30.170Z,98763.38
2023-03-29T17:54:58.113Z,98775.94
2023-03-29T17:57:27.544Z,98766.91
2023-03-29T17:59:55.540Z,98771.50
2023-03-29T18:02:25.275Z,98759.19
2023-03-29T18:04:53.438Z,98743.00
2023-03-29T18:07:21.410Z,98732.97
2023-03-29T18:09:49.397Z,98727.47
2023-03-29T18:12:17.671Z,98727.78
2023-03-29T18:14:46.977Z,98718.06
2023-03-29T18:17:14.882Z,98712.41
2023-03-29T18:19:42.839Z,98711.72
2023-03-29T18:22:10.759Z,98713.91
2023-03-29T18:24:38.691Z,98714.16
2023-03-29T18:27:06.682Z,98705.78
2023-03-29T18:29:34.616Z,98702.81
2023-03-29T18:32:04.612Z,98706.69
2023-03-29T18:34:33.427Z,98705.16
2023-03-29T18:37:01.343Z,98695.91
2023-03-29T18:39:29.521Z,98698.97
2023-03-29T18:41:57.653Z,98695.75
2023-03-29T18:44:27.423Z,98698.28
2023-03-29T18:46:55.520Z,98683.25
2023-03-29T18:49:25.099Z,98693.63
2023-03-29T18:51:54.396Z,98694.38
2023-03-29T18:54:22.588Z,98680.44
2023-03-29T18:56:51.592Z,98674.59
2023-03-29T18:59:19.820Z,98677.41
2023-03-29T19:01:47.760Z,98674.31
2023-03-29T19:04:15.860Z,98680.09
2023-03-29T19:06:45.121Z,98684.19
2023-03-29T19:09:13.038Z,98694.59
2023-03-29T19:11:41.121Z,98698.69
2023-03-29T19:14:09.316Z,98701.38
2023-03-29T19:16:37.372Z,98696.00
2023-03-29T19:19:07.041Z,98705.91
2023-03-29T19:21:35.111Z,98703.22
2023-03-29T19:24:07.778Z,98717.53
2023-03-29T19:26:35.822Z,98714.69
2023-03-29T19:29:03.737Z,98686.22
2023-03-29T19:31:33.491Z,98685.94
2023-03-29T19:34:01.541Z,98679.34
2023-03-29T19:36:29.534Z,98687.63
2023-03-29T19:38:57.549Z,98666.59
2023-03-29T19:41:27.765Z,98697.34
2023-03-29T19:43:55.783Z,98689.44
2023-03-29T19:46:24.208Z,98695.69
2023-03-29T19:48:55.651Z,98693.34
2023-03-29T19:51:24.053Z,98694.34
2023-03-29T19:53:52.843Z,98682.41
2023-03-29T19:56:20.927Z,98686.44
2023-03-29T19:58:50.700Z,98692.31
2023-03-29T20:01:21.020Z,98685.41
2023-03-29T20:03:50.143Z,98681.72
2023-03-29T20:06:19.797Z,98669.81
2023-03-29T20:08:48.578Z,98676.34
2023-03-29T20:11:19.847Z,98673.84
2023-03-29T20:13:47.809Z,98655.19
2023-03-29T20:16:19.028Z,98659.91
2023-03-29T20:18:47.453Z,98654.53
2023-03-29T20:21:17.120Z,98654.84
2023-03-29T20:23:45.536Z,98644.41
2023-03-29T20:26:13.405Z,98638.91
2023-03-29T20:28:41.342Z,98630.47
2023-03-29T20:31:10.803Z,98638.38
2023-03-29T20:33:41.381Z,98636.22
2023-03-29T20:36:10.109Z,98640.91
2023-03-29T20:38:38.392Z,98638.03
2023-03-29T20:41:08.940Z,98629.63
2023-03-29T20:43:38.938Z,98633.34
2023-03-29T20:46:14.241Z,98630.84
2023-03-29T20:48:46.151Z,98636.84
2023-03-29T20:51:14.283Z,98633.34
2023-03-29T20:53:43.005Z,98631.00
2023-03-29T20:56:10.943Z,98631.47
2023-03-29T20:58:42.271Z,98628.97
2023-03-29T21:01:12.424Z,98617.88
2023-03-29T21:03:40.510Z,98619.06
2023-03-29T21:06:14.069Z,98616.19
2023-03-29T21:08:42.678Z,98611.50
2023-03-29T21:11:13.112Z,98606.66
2023-03-29T21:13:41.123Z,98604.75
2023-03-29T21:16:09.151Z,98588.63
2023-03-29T21:18:38.631Z,98588.22
2023-03-29T21:21:08.175Z,98582.84
2023-03-29T21:23:38.008Z,98577.38
2023-03-29T21:26:07.912Z,98571.47
2023-03-29T21:28:36.007Z,98561.38
2023-03-29T21:31:05.925Z,98558.69
2023-03-29T21:33:35.229Z,98573.16
2023-03-29T21:36:03.381Z,98572.63
2023-03-29T21:38:31.419Z,98562.19
2023-03-29T21:41:04.195Z,98578.31
2023-03-29T21:43:32.816Z,98569.56
2023-03-29T21:46:00.872Z,98560.56
2023-03-29T21:48:29.098Z,98561.28
2023-03-29T21:50:57.041Z,98550.88
2023-03-29T21:53:25.884Z,98535.13
2023-03-29T21:55:53.854Z,98556.59
2023-03-29T21:58:23.250Z,98550.53
2023-03-29T22:00:51.528Z,98530.25
2023-03-29T22:03:19.649Z,98550.25
2023-03-29T22:05:57.797Z,98546.19
2023-03-29T22:08:27.213Z,98517.63
2023-03-29T22:10:56.817Z,98549.41
2023-03-29T22:13:28.701Z,98550.41
2023-03-29T22:16:00.044Z,98537.66
2023-03-29T22:18:30.203Z,98544.69
2023-03-29T22:20:58.497Z,98540.91
2023-03-29T22:23:26.451Z,98520.63
2023-03-29T22:25:57.941Z,98538.09
2023-03-29T22:28:27.296Z,98525.81
2023-03-29T22:30:55.350Z,98517.22
2023-03-29T22:33:23.248Z,98504.28
2023-03-29T22:35:51.240Z,98513.06
2023-03-29T22:38:19.163Z,98502.72
2023-03-29T22:40:48.245Z,98518.97
2023-03-29T22:43:16.108Z,98515.66
2023-03-29T22:45:45.496Z,98528.81
2023-03-29T22:48:13.412Z,98512.97
2023-03-29T22:50:42.960Z,98508.06
2023-03-29T22:53:11.661Z,98507.09
2023-03-29T22:55:39.609Z,98503.38
2023-03-29T22:58:07.500Z,98503.59
2023-03-29T23:00:35.555Z,98487.47
2023-03-29T23:03:05.185Z,98489.09
2023-03-29T23:05:33.164Z,98478.72
2023-03-29T23:08:01.188Z,98458.81
2023-03-29T23:10:30.601Z,98474.97
2023-03-29T23:13:08.604Z,98457.72
2023-03-29T23:15:37.455Z,98463.94
2023-03-29T23:18:07.049Z,98460.84
2023-03-29T23:20:35.119Z,98458.56
2023-03-29T23:23:03.046Z,98456.91
2023-03-29T23:25:31.538Z,98460.13
2023-03-29T23:27:59.684Z,98454.44
2023-03-29T23:30:28.082Z,98471.66
2023-03-29T23:32:58.281Z,98441.81
2023-03-29T23:35:27.765Z,98448.16
2023-03-29T23:37:55.728Z,98451.94
2023-03-29T23:40:24.557Z,98460.00
2023-03-29T23:42:53.078Z,98441.34
2023-03-29T23:45:21.071Z,98452.03
2023-03-29T23:47:49.014Z,98447.38
2023-03-29T23:50:16.989Z,98444.56
2023-03-29T23:52:47.215Z,98441.41
2023-03-29T23:55:15.701Z,98445.59
2023-03-29T23:57:43.803Z,98449.91
